sensor_id;sensor_type;location;lat;lon;timestamp;temperature;humidity
43949;DHT22;29429;51.074;13.764;2023-04-03T04:08:34;0.00;99.90
43949;DHT22;29429;51.074;13.764;2023-04-03T04:11:02;0.00;99.90
43949;DHT22;29429;51.074;13.764;2023-04-03T04:13:30;0.00;99.90
43949;DHT22;29429;51.074;13.764;2023-04-03T04:15:58;0.10;99.90
43949;DHT22;29429;51.074;13.764;2023-04-03T04:18:25;0.20;99.90
43949;DHT22;29429;51.074;13.764;2023-04-03T04:20:54;0.30;99.90
43949;DHT22;29429;51.074;13.764;2023-04-03T04:23:29;0.50;99.90
43949;DHT22;29429;51.074;13.764;2023-04-03T04:25:58;0.50;99.90
43949;DHT22;29429;51.074;13.764;2023-04-03T04:28:48;0.50;99.90
43949;DHT22;29429;51.074;13.764;2023-04-03T04:31:21;0.50;99.90
43949;DHT22;29429;51.074;13.764;2023-04-03T04:33:49;0.30;99.90
43949;DHT22;29429;51.074;13.764;2023-04-03T04:36:42;0.20;99.90
43949;DHT22;29429;51.074;13.764;2023-04-03T04:41:03;0.20;99.90
43949;DHT22;29429;51.074;13.764;2023-04-03T04:45:40;0.20;99.90
43949;DHT22;29429;51.074;13.764;2023-04-03T04:50:08;0.20;99.90
43949;DHT22;29429;51.074;13.764;2023-04-03T04:53:45;0.10;99.90
43949;DHT22;29429;51.074;13.764;2023-04-03T04:56:15;0.00;99.90
43949;DHT22;29429;51.074;13.764;2023-04-03T04:58:43;0.00;99.90
43949;DHT22;29429;51.074;13.764;2023-04-03T05:01:12;0.00;99.90
43949;DHT22;29429;51.074;13.764;2023-04-03T05:03:53;0.10;99.90
43949;DHT22;29429;51.074;13.764;2023-04-03T05:06:22;0.10;99.90
43949;DHT22;29429;51.074;13.764;2023-04-03T05:08:49;0.00;99.90
43949;DHT22;29429;51.074;13.764;2023-04-03T05:11:17;0.00;99.90
43949;DHT22;29429;51.074;13.764;2023-04-03T05:13:46;-0.10;99.90
43949;DHT22;29429;51.074;13.764;2023-04-03T05:16:13;-0.10;99.90
43949;DHT22;29429;51.074;13.764;2023-04-03T05:18:41;-0.10;99.90
43949;DHT22;29429;51.074;13.764;2023-04-03T05:21:15;-0.10;99.90
43949;DHT22;29429;51.074;13.764;2023-04-03T05:23:46;0.00;99.90
43949;DHT22;29429;51.074;13.764;2023-04-03T05:26:13;-0.10;99.90
43949;DHT22;29429;51.074;13.764;2023-04-03T05:28:41;-0.10;99.90
43949;DHT22;29429;51.074;13.764;2023-04-03T05:31:08;-0.10;99.90
43949;DHT22;29429;51.074;13.764;2023-04-03T05:33:36;-0.10;99.90
43949;DHT22;29429;51.074;13.764;2023-04-03T05:36:06;0.10;99.90
43949;DHT22;29429;51.074;13.764;2023-04-03T05:38:40;0.00;99.90
43949;DHT22;29429;51.074;13.764;2023-04-03T05:41:08;0.00;99.90
43949;DHT22;29429;51.074;13.764;2023-04-03T05:43:36;0.10;99.90
43949;DHT22;29429;51.074;13.764;2023-04-03T05:46:16;0.00;99.90
43949;DHT22;29429;51.074;13.764;2023-04-03T05:48:49;0.10;99.90
43949;DHT22;29429;51.074;13.764;2023-04-03T05:51:24;0.10;99.90
43949;DHT22;29429;51.074;13.764;2023-04-03T05:54:23;0.10;99.90
43949;DHT22;29429;51.074;13.764;2023-04-03T05:56:57;0.10;99.90
43949;DHT22;29429;51.074;13.764;2023-04-03T05:59:26;0.20;99.90
43949;DHT22;29429;51.074;13.764;2023-04-03T06:01:56;0.20;99.90
43949;DHT22;29429;51.074;13.764;2023-04-03T06:04:24;0.00;99.90
43949;DHT22;29429;51.074;13.764;2023-04-03T06:06:56;0.20;99.90
43949;DHT22;29429;51.074;13.764;2023-04-03T06:09:27;0.30;99.90
43949;DHT22;29429;51.074;13.764;2023-04-03T06:12:00;0.40;99.90
43949;DHT22;29429;51.074;13.764;2023-04-03T06:14:29;0.40;99.90
43949;DHT22;29429;51.074;13.764;2023-04-03T06:16:56;0.60;99.90
43949;DHT22;29429;51.074;13.764;2023-04-03T06:19:24;0.60;99.90
43949;DHT22;29429;51.074;13.764;2023-04-03T06:21:54;0.70;99.90
43949;DHT22;29429;51.074;13.764;2023-04-03T06:24:23;0.80;99.90
43949;DHT22;29429;51.074;13.764;2023-04-03T06:26:54;1.00;99.90
43949;DHT22;29429;51.074;13.764;2023-04-03T06:29:22;1.10;99.90
43949;DHT22;29429;51.074;13.764;2023-04-03T06:31:50;1.30;99.90
43949;DHT22;29429;51.074;13.764;2023-04-03T06:34:18;1.40;99.90
43949;DHT22;29429;51.074;13.764;2023-04-03T06:36:45;1.50;99.90
43949;DHT22;29429;51.074;13.764;2023-04-03T06:39:19;1.60;99.90
43949;DHT22;29429;51.074;13.764;2023-04-03T06:41:47;1.70;99.90
43949;DHT22;29429;51.074;13.764;2023-04-03T06:44:27;1.80;99.90
43949;DHT22;29429;51.074;13.764;2023-04-03T06:47:06;1.90;99.90
43949;DHT22;29429;51.074;13.764;2023-04-03T06:49:36;2.00;99.90
43949;DHT22;29429;51.074;13.764;2023-04-03T06:52:07;2.00;99.90
43949;DHT22;29429;51.074;13.764;2023-04-03T06:54:35;2.10;99.90
43949;DHT22;29429;51.074;13.764;2023-04-03T06:57:05;2.20;99.90
43949;DHT22;29429;51.074;13.764;2023-04-03T06:59:32;2.20;99.90
43949;DHT22;29429;51.074;13.764;2023-04-03T07:02:14;2.30;99.90
43949;DHT22;29429;51.074;13.764;2023-04-03T07:04:55;2.30;99.90
43949;DHT22;29429;51.074;13.764;2023-04-03T07:07:23;2.50;99.90
43949;DHT22;29429;51.074;13.764;2023-04-03T07:09:53;2.50;99.90
43949;DHT22;29429;51.074;13.764;2023-04-03T07:12:23;2.60;99.90
43949;DHT22;29429;51.074;13.764;2023-04-03T07:14:56;2.70;99.90
43949;DHT22;29429;51.074;13.764;2023-04-03T07:17:24;2.80;99.90
43949;DHT22;29429;51.074;13.764;2023-04-03T07:19:52;2.90;99.90
43949;DHT22;29429;51.074;13.764;2023-04-03T07:22:21;2.90;99.90
43949;DHT22;29429;51.074;13.764;2023-04-03T07:24:49;3.00;99.90
43949;DHT22;29429;51.074;13.764;2023-04-03T07:27:24;3.00;99.90
43949;DHT22;29429;51.074;13.764;2023-04-03T07:29:51;3.00;99.90
43949;DHT22;29429;51.074;13.764;2023-04-03T07:32:22;3.00;99.90
43949;DHT22;29429;51.074;13.764;2023-04-03T07:34:49;3.10;99.90
43949;DHT22;29429;51.074;13.764;2023-04-03T07:37:16;3.20;99.90
43949;DHT22;29429;51.074;13.764;2023-04-03T07:39:44;3.30;99.90
43949;DHT22;29429;51.074;13.764;2023-04-03T07:42:12;3.30;99.90
43949;DHT22;29429;51.074;13.764;2023-04-03T07:44:39;3.50;99.90
43949;DHT22;29429;51.074;13.764;2023-04-03T07:47:10;3.40;99.90
43949;DHT22;29429;51.074;13.764;2023-04-03T07:49:37;3.20;99.90
43949;DHT22;29429;51.074;13.764;2023-04-03T07:52:06;3.40;99.90
43949;DHT22;29429;51.074;13.764;2023-04-03T07:54:35;3.50;99.90
43949;DHT22;29429;51.074;13.764;2023-04-03T16:25:30;3.60;99.90
43949;DHT22;29429;51.074;13.764;2023-04-03T16:27:58;5.00;89.20
43949;DHT22;29429;51.074;13.764;2023-04-03T16:30:25;4.80;88.10
43949;DHT22;29429;51.074;13.764;2023-04-03T16:32:53;4.70;89.30
43949;DHT22;29429;51.074;13.764;2023-04-03T16:35:22;4.90;90.00
43949;DHT22;29429;51.074;13.764;2023-04-03T16:37:49;4.70;89.30
43949;DHT22;29429;51.074;13.764;2023-04-03T16:40:16;4.60;90.00
43949;DHT22;29429;51.074;13.764;2023-04-03T16:42:44;4.60;90.40
43949;DHT22;29429;51.074;13.764;2023-04-03T16:45:11;4.50;90.00
43949;DHT22;29429;51.074;13.764;2023-04-03T16:48:17;4.30;90.30
43949;DHT22;29429;51.074;13.764;2023-04-03T16:50:57;4.50;90.40
43949;DHT22;29429;51.074;13.764;2023-04-03T16:53:43;4.40;90.40
43949;DHT22;29429;51.074;13.764;2023-04-03T16:56:13;4.40;90.40
43949;DHT22;29429;51.074;13.764;2023-04-03T16:58:41;4.40;90.00
43949;DHT22;29429;51.074;13.764;2023-04-03T17:01:28;4.40;88.50
43949;DHT22;29429;51.074;13.764;2023-04-03T17:03:56;4.40;88.40
43949;DHT22;29429;51.074;13.764;2023-04-03T17:06:24;4.40;87.90
43949;DHT22;29429;51.074;13.764;2023-04-03T17:22:29;3.70;90.50
43949;DHT22;29429;51.074;13.764;2023-04-03T23:21:02;2.90;99.90
43949;DHT22;29429;51.074;13.764;2023-04-03T23:30:30;2.90;99.90
43949;DHT22;29429;51.074;13.764;2023-04-03T23:49:05;2.80;99.90
